sensor_id;sensor_type;location;lat;lon;timestamp;P1;durP1;ratioP1;P2;durP2;ratioP2
59233;SDS011;60776;51.702;7.462;2023-07-02T00:01:05;7.20;;;3.80;;
59233;SDS011;60776;51.702;7.462;2023-07-02T00:03:33;5.75;;;4.60;;
59233;SDS011;60776;51.702;7.462;2023-07-02T00:05:59;6.50;;;4.80;;
59233;SDS011;60776;51.702;7.462;2023-07-02T00:08:24;5.85;;;4.30;;
59233;SDS011;60776;51.702;7.462;2023-07-02T00:10:58;3.60;;;3.30;;
59233;SDS011;60776;51.702;7.462;2023-07-02T00:13:26;5.63;;;5.13;;
59233;SDS011;60776;51.702;7.462;2023-07-02T00:15:51;6.05;;;4.20;;
59233;SDS011;60776;51.702;7.462;2023-07-02T00:18:17;5.70;;;4.50;;
59233;SDS011;60776;51.702;7.462;2023-07-02T00:20:43;5.22;;;4.40;;
59233;SDS011;60776;51.702;7.462;2023-07-02T00:23:08;4.70;;;4.30;;
59233;SDS011;60776;51.702;7.462;2023-07-02T00:25:35;5.22;;;4.68;;
59233;SDS011;60776;51.702;7.462;2023-07-02T00:28:01;5.20;;;4.63;;
59233;SDS011;60776;51.702;7.462;2023-07-02T00:30:27;4.90;;;4.38;;
59233;SDS011;60776;51.702;7.462;2023-07-02T00:32:53;5.90;;;4.65;;
59233;SDS011;60776;51.702;7.462;2023-07-02T00:35:30;5.25;;;4.63;;
59233;SDS011;60776;51.702;7.462;2023-07-02T00:37:56;4.85;;;4.50;;
59233;SDS011;60776;51.702;7.462;2023-07-02T00:40:21;6.55;;;5.80;;
59233;SDS011;60776;51.702;7.462;2023-07-02T00:42:47;5.90;;;5.32;;
59233;SDS011;60776;51.702;7.462;2023-07-02T00:45:20;6.90;;;5.28;;
59233;SDS011;60776;51.702;7.462;2023-07-02T00:47:48;5.25;;;4.80;;
59233;SDS011;60776;51.702;7.462;2023-07-02T00:50:14;5.85;;;5.13;;
59233;SDS011;60776;51.702;7.462;2023-07-02T00:52:49;7.30;;;5.25;;
59233;SDS011;60776;51.702;7.462;2023-07-02T00:55:15;5.90;;;5.28;;
59233;SDS011;60776;51.702;7.462;2023-07-02T00:57:48;7.53;;;5.43;;
59233;SDS011;60776;51.702;7.462;2023-07-02T01:00:17;6.35;;;5.20;;
59233;SDS011;60776;51.702;7.462;2023-07-02T01:02:50;5.43;;;4.55;;
59233;SDS011;60776;51.702;7.462;2023-07-02T01:05:23;8.73;;;5.20;;
59233;SDS011;60776;51.702;7.462;2023-07-02T01:08:03;5.28;;;4.53;;
59233;SDS011;60776;51.702;7.462;2023-07-02T01:10:30;6.07;;;5.35;;
59233;SDS011;60776;51.702;7.462;2023-07-02T01:12:59;7.22;;;4.82;;
59233;SDS011;60776;51.702;7.462;2023-07-02T01:15:28;6.88;;;4.93;;
59233;SDS011;60776;51.702;7.462;2023-07-02T01:17:54;5.57;;;5.05;;
59233;SDS011;60776;51.702;7.462;2023-07-02T01:20:20;8.15;;;5.63;;
59233;SDS011;60776;51.702;7.462;2023-07-02T01:22:48;8.25;;;6.15;;
59233;SDS011;60776;51.702;7.462;2023-07-02T01:25:16;8.20;;;6.38;;
59233;SDS011;60776;51.702;7.462;2023-07-02T01:27:45;9.20;;;6.43;;
59233;SDS011;60776;51.702;7.462;2023-07-02T01:30:18;7.85;;;5.22;;
59233;SDS011;60776;51.702;7.462;2023-07-02T01:32:47;6.10;;;4.47;;
59233;SDS011;60776;51.702;7.462;2023-07-02T01:35:12;7.57;;;5.70;;
59233;SDS011;60776;51.702;7.462;2023-07-02T01:37:38;6.93;;;5.65;;
59233;SDS011;60776;51.702;7.462;2023-07-02T01:40:06;5.88;;;4.95;;
59233;SDS011;60776;51.702;7.462;2023-07-02T01:42:33;8.32;;;5.50;;
59233;SDS011;60776;51.702;7.462;2023-07-02T01:45:07;5.88;;;4.68;;
59233;SDS011;60776;51.702;7.462;2023-07-02T01:47:33;5.93;;;5.22;;
59233;SDS011;60776;51.702;7.462;2023-07-02T01:49:59;6.10;;;5.25;;
59233;SDS011;60776;51.702;7.462;2023-07-02T01:52:25;5.60;;;4.28;;
59233;SDS011;60776;51.702;7.462;2023-07-02T01:54:52;7.18;;;4.50;;
59233;SDS011;60776;51.702;7.462;2023-07-02T01:57:18;5.15;;;4.30;;
59233;SDS011;60776;51.702;7.462;2023-07-02T01:59:53;6.32;;;4.45;;
59233;SDS011;60776;51.702;7.462;2023-07-02T02:02:27;6.15;;;4.82;;
59233;SDS011;60776;51.702;7.462;2023-07-02T02:04:52;10.20;;;5.40;;
59233;SDS011;60776;51.702;7.462;2023-07-02T02:07:21;6.47;;;4.90;;
59233;SDS011;60776;51.702;7.462;2023-07-02T02:09:54;7.85;;;5.10;;
59233;SDS011;60776;51.702;7.462;2023-07-02T02:12:22;8.40;;;4.85;;
59233;SDS011;60776;51.702;7.462;2023-07-02T02:14:48;8.35;;;5.05;;
59233;SDS011;60776;51.702;7.462;2023-07-02T02:17:13;6.82;;;4.50;;
59233;SDS011;60776;51.702;7.462;2023-07-02T02:19:47;6.47;;;5.40;;
59233;SDS011;60776;51.702;7.462;2023-07-02T02:22:12;8.43;;;4.90;;
59233;SDS011;60776;51.702;7.462;2023-07-02T02:24:46;8.00;;;5.68;;
59233;SDS011;60776;51.702;7.462;2023-07-02T02:27:11;6.30;;;5.13;;
59233;SDS011;60776;51.702;7.462;2023-07-02T02:29:37;8.23;;;5.47;;
59233;SDS011;60776;51.702;7.462;2023-07-02T02:32:02;7.43;;;5.55;;
59233;SDS011;60776;51.702;7.462;2023-07-02T02:34:28;7.28;;;5.47;;
59233;SDS011;60776;51.702;7.462;2023-07-02T02:36:54;7.03;;;5.10;;
59233;SDS011;60776;51.702;7.462;2023-07-02T02:39:22;10.55;;;6.35;;
59233;SDS011;60776;51.702;7.462;2023-07-02T02:41:48;9.82;;;6.72;;
59233;SDS011;60776;51.702;7.462;2023-07-02T02:44:21;9.15;;;6.15;;
59233;SDS011;60776;51.702;7.462;2023-07-02T02:46:47;7.20;;;5.60;;
59233;SDS011;60776;51.702;7.462;2023-07-02T02:49:12;10.85;;;6.30;;
59233;SDS011;60776;51.702;7.462;2023-07-02T02:51:40;12.65;;;5.85;;
59233;SDS011;60776;51.702;7.462;2023-07-02T02:54:06;7.53;;;4.95;;
59233;SDS011;60776;51.702;7.462;2023-07-02T02:56:37;8.10;;;5.72;;
59233;SDS011;60776;51.702;7.462;2023-07-02T02:59:02;11.50;;;6.80;;
59233;SDS011;60776;51.702;7.462;2023-07-02T03:01:28;9.57;;;6.03;;
59233;SDS011;60776;51.702;7.462;2023-07-02T03:04:01;10.88;;;6.75;;
59233;SDS011;60776;51.702;7.462;2023-07-02T03:06:33;10.10;;;6.97;;
59233;SDS011;60776;51.702;7.462;2023-07-02T03:08:59;12.13;;;6.35;;
59233;SDS011;60776;51.702;7.462;2023-07-02T03:11:24;11.05;;;6.35;;
59233;SDS011;60776;51.702;7.462;2023-07-02T03:13:57;8.10;;;6.68;;
59233;SDS011;60776;51.702;7.462;2023-07-02T03:16:31;10.25;;;6.47;;
59233;SDS011;60776;51.702;7.462;2023-07-02T03:18:58;13.85;;;8.70;;
59233;SDS011;60776;51.702;7.462;2023-07-02T03:21:26;9.90;;;6.88;;
59233;SDS011;60776;51.702;7.462;2023-07-02T03:23:55;15.02;;;8.10;;
59233;SDS011;60776;51.702;7.462;2023-07-02T03:26:32;10.35;;;7.25;;
59233;SDS011;60776;51.702;7.462;2023-07-02T03:29:01;12.32;;;7.97;;
59233;SDS011;60776;51.702;7.462;2023-07-02T03:31:38;10.63;;;7.75;;
59233;SDS011;60776;51.702;7.462;2023-07-02T03:34:13;12.57;;;7.97;;
59233;SDS011;60776;51.702;7.462;2023-07-02T03:36:41;15.75;;;8.77;;
59233;SDS011;60776;51.702;7.462;2023-07-02T03:39:16;13.32;;;7.78;;
59233;SDS011;60776;51.702;7.462;2023-07-02T03:41:44;10.25;;;7.40;;
59233;SDS011;60776;51.702;7.462;2023-07-02T03:44:18;12.57;;;8.38;;
59233;SDS011;60776;51.702;7.462;2023-07-02T03:46:44;15.18;;;8.27;;
59233;SDS011;60776;51.702;7.462;2023-07-02T03:49:21;11.50;;;7.68;;
59233;SDS011;60776;51.702;7.462;2023-07-02T03:51:49;11.38;;;7.55;;
59233;SDS011;60776;51.702;7.462;2023-07-02T03:54:17;11.43;;;6.80;;
59233;SDS011;60776;51.702;7.462;2023-07-02T03:56:45;12.30;;;8.57;;
59233;SDS011;60776;51.702;7.462;2023-07-02T03:59:18;16.27;;;8.48;;
59233;SDS011;60776;51.702;7.462;2023-07-02T04:01:47;10.52;;;7.45;;
59233;SDS011;60776;51.702;7.462;2023-07-02T04:04:13;11.98;;;7.78;;
59233;SDS011;60776;51.702;7.462;2023-07-02T04:06:53;10.32;;;7.20;;
59233;SDS011;60776;51.702;7.462;2023-07-02T04:09:19;8.55;;;6.05;;
59233;SDS011;60776;51.702;7.462;2023-07-02T04:11:46;12.70;;;7.85;;
59233;SDS011;60776;51.702;7.462;2023-07-02T04:14:12;13.32;;;7.95;;
59233;SDS011;60776;51.702;7.462;2023-07-02T04:16:40;13.30;;;7.10;;
59233;SDS011;60776;51.702;7.462;2023-07-02T04:19:11;14.88;;;7.40;;
59233;SDS011;60776;51.702;7.462;2023-07-02T04:21:37;13.95;;;7.43;;
59233;SDS011;60776;51.702;7.462;2023-07-02T04:24:02;12.02;;;6.72;;
59233;SDS011;60776;51.702;7.462;2023-07-02T04:26:28;13.82;;;7.15;;
59233;SDS011;60776;51.702;7.462;2023-07-02T04:28:54;12.20;;;7.20;;
59233;SDS011;60776;51.702;7.462;2023-07-02T04:31:20;11.48;;;6.57;;
59233;SDS011;60776;51.702;7.462;2023-07-02T04:33:46;16.00;;;7.30;;
59233;SDS011;60776;51.702;7.462;2023-07-02T04:36:12;10.95;;;6.60;;
59233;SDS011;60776;51.702;7.462;2023-07-02T04:38:47;14.73;;;7.97;;
59233;SDS011;60776;51.702;7.462;2023-07-02T04:41:13;13.00;;;7.00;;
59233;SDS011;60776;51.702;7.462;2023-07-02T04:43:38;13.52;;;7.80;;
59233;SDS011;60776;51.702;7.462;2023-07-02T04:46:06;9.43;;;6.40;;
59233;SDS011;60776;51.702;7.462;2023-07-02T04:48:32;14.02;;;7.45;;
59233;SDS011;60776;51.702;7.462;2023-07-02T04:51:00;13.45;;;6.88;;
59233;SDS011;60776;51.702;7.462;2023-07-02T04:53:29;14.20;;;7.20;;
59233;SDS011;60776;51.702;7.462;2023-07-02T04:56:05;14.35;;;7.35;;
59233;SDS011;60776;51.702;7.462;2023-07-02T04:58:39;11.48;;;6.55;;
59233;SDS011;60776;51.702;7.462;2023-07-02T05:01:12;11.70;;;6.45;;
59233;SDS011;60776;51.702;7.462;2023-07-02T05:03:40;12.77;;;7.03;;
59233;SDS011;60776;51.702;7.462;2023-07-02T05:06:13;12.23;;;6.95;;
59233;SDS011;60776;51.702;7.462;2023-07-02T05:08:46;12.75;;;7.03;;
59233;SDS011;60776;51.702;7.462;2023-07-02T05:11:14;10.38;;;6.13;;
59233;SDS011;60776;51.702;7.462;2023-07-02T05:13:48;11.05;;;6.07;;
59233;SDS011;60776;51.702;7.462;2023-07-02T05:16:13;9.45;;;6.13;;
59233;SDS011;60776;51.702;7.462;2023-07-02T05:18:42;14.23;;;7.07;;
59233;SDS011;60776;51.702;7.462;2023-07-02T05:21:22;11.80;;;7.13;;
59233;SDS011;60776;51.702;7.462;2023-07-02T05:23:48;13.70;;;7.03;;
59233;SDS011;60776;51.702;7.462;2023-07-02T05:26:16;13.18;;;6.22;;
59233;SDS011;60776;51.702;7.462;2023-07-02T05:28:56;10.60;;;6.22;;
59233;SDS011;60776;51.702;7.462;2023-07-02T05:31:25;12.57;;;7.03;;
59233;SDS011;60776;51.702;7.462;2023-07-02T05:33:58;12.07;;;7.07;;
59233;SDS011;60776;51.702;7.462;2023-07-02T05:36:26;12.70;;;6.13;;
59233;SDS011;60776;51.702;7.462;2023-07-02T05:39:03;13.38;;;7.68;;
59233;SDS011;60776;51.702;7.462;2023-07-02T05:41:31;10.73;;;6.43;;
59233;SDS011;60776;51.702;7.462;2023-07-02T05:44:05;10.15;;;6.75;;
59233;SDS011;60776;51.702;7.462;2023-07-02T05:46:33;12.50;;;6.80;;
59233;SDS011;60776;51.702;7.462;2023-07-02T05:49:08;13.25;;;7.63;;
59233;SDS011;60776;51.702;7.462;2023-07-02T05:51:37;8.27;;;6.18;;
59233;SDS011;60776;51.702;7.462;2023-07-02T05:54:10;12.27;;;7.00;;
59233;SDS011;60776;51.702;7.462;2023-07-02T05:56:38;10.70;;;6.25;;
59233;SDS011;60776;51.702;7.462;2023-07-02T05:59:04;14.25;;;7.45;;
59233;SDS011;60776;51.702;7.462;2023-07-02T06:01:29;11.73;;;7.35;;
59233;SDS011;60776;51.702;7.462;2023-07-02T06:03:57;9.60;;;7.07;;
59233;SDS011;60776;51.702;7.462;2023-07-02T06:06:23;13.18;;;8.00;;
59233;SDS011;60776;51.702;7.462;2023-07-02T06:09:05;14.07;;;9.25;;
59233;SDS011;60776;51.702;7.462;2023-07-02T06:11:33;14.45;;;10.48;;
59233;SDS011;60776;51.702;7.462;2023-07-02T06:14:07;15.35;;;10.00;;
59233;SDS011;60776;51.702;7.462;2023-07-02T06:16:35;14.57;;;9.85;;
59233;SDS011;60776;51.702;7.462;2023-07-02T06:19:01;17.60;;;10.55;;
59233;SDS011;60776;51.702;7.462;2023-07-02T06:21:41;13.55;;;9.80;;
59233;SDS011;60776;51.702;7.462;2023-07-02T06:24:09;20.08;;;11.38;;
59233;SDS011;60776;51.702;7.462;2023-07-02T06:26:43;16.67;;;11.13;;
59233;SDS011;60776;51.702;7.462;2023-07-02T06:29:16;16.83;;;9.90;;
59233;SDS011;60776;51.702;7.462;2023-07-02T06:31:44;19.38;;;10.68;;
59233;SDS011;60776;51.702;7.462;2023-07-02T06:34:10;18.45;;;10.43;;
59233;SDS011;60776;51.702;7.462;2023-07-02T06:36:45;18.77;;;10.60;;
59233;SDS011;60776;51.702;7.462;2023-07-02T06:39:11;17.92;;;10.13;;
59233;SDS011;60776;51.702;7.462;2023-07-02T06:41:52;14.38;;;9.77;;
59233;SDS011;60776;51.702;7.462;2023-07-02T06:44:20;14.05;;;9.48;;
59233;SDS011;60776;51.702;7.462;2023-07-02T06:46:54;14.27;;;9.02;;
59233;SDS011;60776;51.702;7.462;2023-07-02T06:49:22;13.63;;;9.55;;
59233;SDS011;60776;51.702;7.462;2023-07-02T06:51:48;14.50;;;9.55;;
59233;SDS011;60776;51.702;7.462;2023-07-02T06:54:28;13.30;;;9.30;;
59233;SDS011;60776;51.702;7.462;2023-07-02T06:56:57;12.27;;;8.63;;
59233;SDS011;60776;51.702;7.462;2023-07-02T06:59:25;15.00;;;8.82;;
59233;SDS011;60776;51.702;7.462;2023-07-02T07:01:53;17.33;;;9.65;;
59233;SDS011;60776;51.702;7.462;2023-07-02T07:04:19;14.18;;;8.43;;
59233;SDS011;60776;51.702;7.462;2023-07-02T07:06:44;10.85;;;8.25;;
59233;SDS011;60776;51.702;7.462;2023-07-02T07:09:12;11.50;;;8.52;;
59233;SDS011;60776;51.702;7.462;2023-07-02T07:11:53;16.00;;;9.38;;
59233;SDS011;60776;51.702;7.462;2023-07-02T07:14:19;9.95;;;8.18;;
59233;SDS011;60776;51.702;7.462;2023-07-02T07:16:47;10.15;;;8.30;;
59233;SDS011;60776;51.702;7.462;2023-07-02T07:19:27;14.23;;;8.38;;
59233;SDS011;60776;51.702;7.462;2023-07-02T07:21:55;14.10;;;8.50;;
59233;SDS011;60776;51.702;7.462;2023-07-02T07:24:31;10.05;;;7.93;;
59233;SDS011;60776;51.702;7.462;2023-07-02T07:26:59;15.65;;;8.50;;
59233;SDS011;60776;51.702;7.462;2023-07-02T07:29:32;15.95;;;8.80;;
59233;SDS011;60776;51.702;7.462;2023-07-02T07:32:01;10.93;;;8.10;;
59233;SDS011;60776;51.702;7.462;2023-07-02T07:34:26;12.85;;;8.13;;
59233;SDS011;60776;51.702;7.462;2023-07-02T07:37:03;13.38;;;8.88;;
59233;SDS011;60776;51.702;7.462;2023-07-02T07:39:37;15.38;;;8.77;;
59233;SDS011;60776;51.702;7.462;2023-07-02T07:42:10;15.15;;;8.88;;
59233;SDS011;60776;51.702;7.462;2023-07-02T07:44:38;14.60;;;9.02;;
59233;SDS011;60776;51.702;7.462;2023-07-02T07:47:12;14.02;;;8.70;;
59233;SDS011;60776;51.702;7.462;2023-07-02T07:49:40;13.80;;;8.45;;
59233;SDS011;60776;51.702;7.462;2023-07-02T07:52:06;15.25;;;8.48;;
59233;SDS011;60776;51.702;7.462;2023-07-02T07:54:37;11.93;;;8.27;;
59233;SDS011;60776;51.702;7.462;2023-07-02T07:57:03;13.40;;;8.57;;
59233;SDS011;60776;51.702;7.462;2023-07-02T07:59:32;12.32;;;8.80;;
59233;SDS011;60776;51.702;7.462;2023-07-02T08:02:05;14.45;;;9.00;;
59233;SDS011;60776;51.702;7.462;2023-07-02T08:04:33;11.05;;;8.30;;
59233;SDS011;60776;51.702;7.462;2023-07-02T08:06:59;11.38;;;8.27;;
59233;SDS011;60776;51.702;7.462;2023-07-02T08:09:24;13.10;;;8.60;;
59233;SDS011;60776;51.702;7.462;2023-07-02T08:11:52;12.32;;;8.27;;
59233;SDS011;60776;51.702;7.462;2023-07-02T08:14:18;10.60;;;8.18;;
59233;SDS011;60776;51.702;7.462;2023-07-02T08:16:55;13.98;;;8.40;;
59233;SDS011;60776;51.702;7.462;2023-07-02T08:19:20;15.30;;;8.45;;
59233;SDS011;60776;51.702;7.462;2023-07-02T08:21:47;13.93;;;8.13;;
59233;SDS011;60776;51.702;7.462;2023-07-02T08:24:15;11.90;;;8.30;;
59233;SDS011;60776;51.702;7.462;2023-07-02T08:26:40;12.85;;;8.15;;
59233;SDS011;60776;51.702;7.462;2023-07-02T08:29:14;11.98;;;7.53;;
59233;SDS011;60776;51.702;7.462;2023-07-02T08:31:42;12.55;;;7.72;;
59233;SDS011;60776;51.702;7.462;2023-07-02T08:34:08;10.52;;;7.35;;
59233;SDS011;60776;51.702;7.462;2023-07-02T08:36:36;15.75;;;9.27;;
59233;SDS011;60776;51.702;7.462;2023-07-02T08:39:10;16.58;;;8.65;;
59233;SDS011;60776;51.702;7.462;2023-07-02T08:41:43;13.45;;;8.43;;
59233;SDS011;60776;51.702;7.462;2023-07-02T08:44:12;13.75;;;8.90;;
59233;SDS011;60776;51.702;7.462;2023-07-02T08:46:39;13.38;;;8.05;;
59233;SDS011;60776;51.702;7.462;2023-07-02T08:49:07;11.65;;;7.97;;
59233;SDS011;60776;51.702;7.462;2023-07-02T08:51:42;14.93;;;8.43;;
59233;SDS011;60776;51.702;7.462;2023-07-02T09:11:58;10.50;;;7.30;;
59233;SDS011;60776;51.702;7.462;2023-07-02T09:14:41;12.48;;;7.65;;
59233;SDS011;60776;51.702;7.462;2023-07-02T09:17:08;11.25;;;7.45;;
59233;SDS011;60776;51.702;7.462;2023-07-02T09:19:34;11.60;;;7.82;;
59233;SDS011;60776;51.702;7.462;2023-07-02T09:56:24;8.63;;;5.93;;
59233;SDS011;60776;51.702;7.462;2023-07-02T09:58:50;10.20;;;6.38;;
59233;SDS011;60776;51.702;7.462;2023-07-02T10:01:16;9.43;;;6.53;;
59233;SDS011;60776;51.702;7.462;2023-07-02T10:17:42;11.93;;;6.82;;
59233;SDS011;60776;51.702;7.462;2023-07-02T10:20:19;10.50;;;6.07;;
59233;SDS011;60776;51.702;7.462;2023-07-02T10:23:00;7.32;;;6.05;;
59233;SDS011;60776;51.702;7.462;2023-07-02T10:56:23;9.40;;;6.35;;
59233;SDS011;60776;51.702;7.462;2023-07-02T10:58:50;10.73;;;6.65;;
59233;SDS011;60776;51.702;7.462;2023-07-02T11:01:26;10.60;;;7.03;;
59233;SDS011;60776;51.702;7.462;2023-07-02T11:03:57;9.85;;;6.20;;
59233;SDS011;60776;51.702;7.462;2023-07-02T11:06:27;9.05;;;6.20;;
59233;SDS011;60776;51.702;7.462;2023-07-02T11:08:53;9.15;;;6.38;;
59233;SDS011;60776;51.702;7.462;2023-07-02T11:24:32;8.15;;;5.60;;
59233;SDS011;60776;51.702;7.462;2023-07-02T11:40:42;8.25;;;5.43;;
59233;SDS011;60776;51.702;7.462;2023-07-02T11:46:35;8.43;;;4.90;;
59233;SDS011;60776;51.702;7.462;2023-07-02T11:52:42;7.30;;;5.75;;
59233;SDS011;60776;51.702;7.462;2023-07-02T11:55:08;8.75;;;5.35;;
59233;SDS011;60776;51.702;7.462;2023-07-02T11:57:34;6.40;;;5.20;;
59233;SDS011;60776;51.702;7.462;2023-07-02T12:00:00;6.60;;;5.47;;
59233;SDS011;60776;51.702;7.462;2023-07-02T12:02:26;6.50;;;4.97;;
59233;SDS011;60776;51.702;7.462;2023-07-02T12:04:52;7.80;;;4.85;;
59233;SDS011;60776;51.702;7.462;2023-07-02T12:07:18;9.93;;;5.13;;
59233;SDS011;60776;51.702;7.462;2023-07-02T12:09:43;9.80;;;5.00;;
59233;SDS011;60776;51.702;7.462;2023-07-02T12:12:10;6.78;;;4.68;;
59233;SDS011;60776;51.702;7.462;2023-07-02T12:14:36;6.47;;;4.15;;
59233;SDS011;60776;51.702;7.462;2023-07-02T12:17:09;7.32;;;4.75;;
59233;SDS011;60776;51.702;7.462;2023-07-02T12:19:37;5.20;;;4.63;;
59233;SDS011;60776;51.702;7.462;2023-07-02T12:22:04;7.80;;;4.88;;
59233;SDS011;60776;51.702;7.462;2023-07-02T12:24:30;7.38;;;5.07;;
59233;SDS011;60776;51.702;7.462;2023-07-02T12:26:55;6.05;;;4.95;;
59233;SDS011;60776;51.702;7.462;2023-07-02T12:29:21;6.97;;;5.05;;
59233;SDS011;60776;51.702;7.462;2023-07-02T12:31:47;7.53;;;5.60;;
59233;SDS011;60776;51.702;7.462;2023-07-02T12:34:12;7.75;;;5.43;;
59233;SDS011;60776;51.702;7.462;2023-07-02T12:36:38;6.70;;;4.88;;
59233;SDS011;60776;51.702;7.462;2023-07-02T12:39:03;8.48;;;5.18;;
59233;SDS011;60776;51.702;7.462;2023-07-02T12:41:29;9.48;;;4.95;;
59233;SDS011;60776;51.702;7.462;2023-07-02T12:43:55;6.13;;;4.90;;
59233;SDS011;60776;51.702;7.462;2023-07-02T12:46:22;8.02;;;5.05;;
59233;SDS011;60776;51.702;7.462;2023-07-02T12:48:47;9.25;;;5.25;;
59233;SDS011;60776;51.702;7.462;2023-07-02T12:51:13;8.32;;;5.25;;
59233;SDS011;60776;51.702;7.462;2023-07-02T12:53:39;11.50;;;5.35;;
59233;SDS011;60776;51.702;7.462;2023-07-02T12:56:05;8.57;;;5.35;;
59233;SDS011;60776;51.702;7.462;2023-07-02T12:58:31;8.68;;;5.78;;
59233;SDS011;60776;51.702;7.462;2023-07-02T13:00:56;9.18;;;5.22;;
59233;SDS011;60776;51.702;7.462;2023-07-02T13:03:22;9.73;;;5.80;;
59233;SDS011;60776;51.702;7.462;2023-07-02T13:05:49;7.90;;;5.22;;
59233;SDS011;60776;51.702;7.462;2023-07-02T13:08:15;8.30;;;5.80;;
59233;SDS011;60776;51.702;7.462;2023-07-02T13:10:41;7.35;;;5.38;;
59233;SDS011;60776;51.702;7.462;2023-07-02T13:13:07;8.02;;;5.78;;
59233;SDS011;60776;51.702;7.462;2023-07-02T13:15:32;8.30;;;5.05;;
59233;SDS011;60776;51.702;7.462;2023-07-02T13:17:59;6.85;;;4.90;;
59233;SDS011;60776;51.702;7.462;2023-07-02T13:20:25;8.48;;;5.63;;
59233;SDS011;60776;51.702;7.462;2023-07-02T13:22:51;10.60;;;5.60;;
59233;SDS011;60776;51.702;7.462;2023-07-02T13:25:16;8.65;;;5.55;;
59233;SDS011;60776;51.702;7.462;2023-07-02T13:27:42;9.80;;;5.55;;
59233;SDS011;60776;51.702;7.462;2023-07-02T13:30:08;9.23;;;5.60;;
59233;SDS011;60776;51.702;7.462;2023-07-02T13:32:34;8.98;;;5.60;;
59233;SDS011;60776;51.702;7.462;2023-07-02T13:34:59;8.40;;;5.28;;
59233;SDS011;60776;51.702;7.462;2023-07-02T13:37:25;10.23;;;5.38;;
59233;SDS011;60776;51.702;7.462;2023-07-02T13:39:51;9.52;;;5.75;;
59233;SDS011;60776;51.702;7.462;2023-07-02T13:42:16;8.63;;;5.93;;
59233;SDS011;60776;51.702;7.462;2023-07-02T13:44:43;9.07;;;5.82;;
59233;SDS011;60776;51.702;7.462;2023-07-02T13:47:08;11.25;;;6.30;;
59233;SDS011;60776;51.702;7.462;2023-07-02T13:49:36;8.10;;;5.97;;
59233;SDS011;60776;51.702;7.462;2023-07-02T13:52:02;9.25;;;5.85;;
59233;SDS011;60776;51.702;7.462;2023-07-02T13:54:27;11.00;;;6.07;;
59233;SDS011;60776;51.702;7.462;2023-07-02T13:57:00;8.40;;;6.15;;
59233;SDS011;60776;51.702;7.462;2023-07-02T13:59:26;9.40;;;5.75;;
59233;SDS011;60776;51.702;7.462;2023-07-02T14:01:54;10.35;;;5.97;;
59233;SDS011;60776;51.702;7.462;2023-07-02T14:04:20;7.40;;;5.38;;
59233;SDS011;60776;51.702;7.462;2023-07-02T14:06:45;9.63;;;5.60;;
59233;SDS011;60776;51.702;7.462;2023-07-02T14:09:11;8.68;;;5.97;;
59233;SDS011;60776;51.702;7.462;2023-07-02T14:11:38;10.60;;;5.32;;
59233;SDS011;60776;51.702;7.462;2023-07-02T14:14:05;11.05;;;5.82;;
59233;SDS011;60776;51.702;7.462;2023-07-02T14:16:31;9.05;;;5.95;;
59233;SDS011;60776;51.702;7.462;2023-07-02T14:18:57;8.57;;;5.68;;
59233;SDS011;60776;51.702;7.462;2023-07-02T14:21:23;11.00;;;6.30;;
59233;SDS011;60776;51.702;7.462;2023-07-02T14:23:49;11.13;;;6.60;;
59233;SDS011;60776;51.702;7.462;2023-07-02T14:26:22;10.50;;;6.35;;
59233;SDS011;60776;51.702;7.462;2023-07-02T14:28:48;8.80;;;6.28;;
59233;SDS011;60776;51.702;7.462;2023-07-02T14:31:13;9.88;;;5.70;;
59233;SDS011;60776;51.702;7.462;2023-07-02T14:33:42;10.75;;;6.20;;
59233;SDS011;60776;51.702;7.462;2023-07-02T14:36:08;14.32;;;7.18;;
59233;SDS011;60776;51.702;7.462;2023-07-02T14:38:33;10.80;;;6.40;;
59233;SDS011;60776;51.702;7.462;2023-07-02T14:41:00;13.63;;;6.90;;
59233;SDS011;60776;51.702;7.462;2023-07-02T14:43:26;11.43;;;6.45;;
59233;SDS011;60776;51.702;7.462;2023-07-02T14:45:55;12.45;;;6.22;;
59233;SDS011;60776;51.702;7.462;2023-07-02T14:48:22;11.38;;;6.40;;
59233;SDS011;60776;51.702;7.462;2023-07-02T14:50:49;11.68;;;6.60;;
59233;SDS011;60776;51.702;7.462;2023-07-02T14:53:17;10.15;;;6.70;;
59233;SDS011;60776;51.702;7.462;2023-07-02T14:55:43;13.40;;;6.05;;
59233;SDS011;60776;51.702;7.462;2023-07-02T14:58:09;10.27;;;6.32;;
59233;SDS011;60776;51.702;7.462;2023-07-02T15:00:42;12.10;;;7.00;;
59233;SDS011;60776;51.702;7.462;2023-07-02T15:03:13;10.15;;;6.55;;
59233;SDS011;60776;51.702;7.462;2023-07-02T15:05:40;12.63;;;7.07;;
59233;SDS011;60776;51.702;7.462;2023-07-02T15:08:09;11.55;;;6.97;;
59233;SDS011;60776;51.702;7.462;2023-07-02T15:10:40;10.32;;;6.50;;
59233;SDS011;60776;51.702;7.462;2023-07-02T15:13:06;10.45;;;6.38;;
59233;SDS011;60776;51.702;7.462;2023-07-02T15:15:35;11.68;;;6.82;;
59233;SDS011;60776;51.702;7.462;2023-07-02T15:18:01;9.95;;;6.55;;
59233;SDS011;60776;51.702;7.462;2023-07-02T15:20:28;10.30;;;6.15;;
59233;SDS011;60776;51.702;7.462;2023-07-02T15:22:54;9.63;;;6.57;;
59233;SDS011;60776;51.702;7.462;2023-07-02T15:25:20;13.05;;;7.07;;
59233;SDS011;60776;51.702;7.462;2023-07-02T15:27:46;9.70;;;6.43;;
59233;SDS011;60776;51.702;7.462;2023-07-02T15:30:12;9.48;;;6.50;;
59233;SDS011;60776;51.702;7.462;2023-07-02T15:32:40;10.27;;;6.80;;
59233;SDS011;60776;51.702;7.462;2023-07-02T15:35:06;9.73;;;6.53;;
59233;SDS011;60776;51.702;7.462;2023-07-02T15:37:32;11.85;;;7.10;;
59233;SDS011;60776;51.702;7.462;2023-07-02T15:39:58;9.40;;;6.15;;
59233;SDS011;60776;51.702;7.462;2023-07-02T15:42:23;12.55;;;6.70;;
59233;SDS011;60776;51.702;7.462;2023-07-02T15:44:54;10.90;;;6.75;;
59233;SDS011;60776;51.702;7.462;2023-07-02T15:47:20;9.23;;;6.47;;
59233;SDS011;60776;51.702;7.462;2023-07-02T15:49:47;9.77;;;5.90;;
59233;SDS011;60776;51.702;7.462;2023-07-02T15:52:13;12.18;;;7.05;;
59233;SDS011;60776;51.702;7.462;2023-07-02T15:54:39;13.75;;;6.82;;
59233;SDS011;60776;51.702;7.462;2023-07-02T15:57:05;8.90;;;5.70;;
59233;SDS011;60776;51.702;7.462;2023-07-02T15:59:31;9.68;;;5.88;;
59233;SDS011;60776;51.702;7.462;2023-07-02T16:01:57;8.77;;;5.63;;
59233;SDS011;60776;51.702;7.462;2023-07-02T16:04:23;11.13;;;5.68;;
59233;SDS011;60776;51.702;7.462;2023-07-02T16:06:52;11.07;;;5.75;;
59233;SDS011;60776;51.702;7.462;2023-07-02T16:09:17;9.02;;;5.85;;
59233;SDS011;60776;51.702;7.462;2023-07-02T16:11:43;8.70;;;5.70;;
59233;SDS011;60776;51.702;7.462;2023-07-02T16:14:10;10.88;;;6.25;;
59233;SDS011;60776;51.702;7.462;2023-07-02T16:16:39;7.53;;;5.10;;
59233;SDS011;60776;51.702;7.462;2023-07-02T16:19:10;7.95;;;5.65;;
59233;SDS011;60776;51.702;7.462;2023-07-02T16:21:38;9.07;;;5.55;;
59233;SDS011;60776;51.702;7.462;2023-07-02T16:24:05;7.55;;;5.10;;
59233;SDS011;60776;51.702;7.462;2023-07-02T16:26:42;7.60;;;4.93;;
59233;SDS011;60776;51.702;7.462;2023-07-02T16:29:08;8.35;;;5.80;;
59233;SDS011;60776;51.702;7.462;2023-07-02T16:31:34;8.55;;;5.35;;
59233;SDS011;60776;51.702;7.462;2023-07-02T16:34:00;10.18;;;6.07;;
59233;SDS011;60776;51.702;7.462;2023-07-02T16:36:27;13.38;;;5.72;;
59233;SDS011;60776;51.702;7.462;2023-07-02T16:38:53;8.32;;;5.57;;
59233;SDS011;60776;51.702;7.462;2023-07-02T16:41:18;8.57;;;5.13;;
59233;SDS011;60776;51.702;7.462;2023-07-02T16:43:44;10.07;;;5.28;;
59233;SDS011;60776;51.702;7.462;2023-07-02T16:46:09;7.10;;;4.78;;
59233;SDS011;60776;51.702;7.462;2023-07-02T16:48:35;8.05;;;4.55;;
59233;SDS011;60776;51.702;7.462;2023-07-02T16:51:02;7.13;;;4.63;;
59233;SDS011;60776;51.702;7.462;2023-07-02T16:53:30;7.80;;;4.78;;
59233;SDS011;60776;51.702;7.462;2023-07-02T16:56:04;7.50;;;4.68;;
59233;SDS011;60776;51.702;7.462;2023-07-02T16:58:31;7.68;;;4.82;;